sensor_id;sensor_type;location;lat;lon;timestamp;P1;durP1;ratioP1;P2;durP2;ratioP2
14738;SDS011;7461;52.440;13.540;2023-07-31T00:00:19;2.53;;;2.33;;
14738;SDS011;7461;52.440;13.540;2023-07-31T00:02:47;2.80;;;2.60;;
14738;SDS011;7461;52.440;13.540;2023-07-31T00:05:14;4.10;;;2.67;;
14738;SDS011;7461;52.440;13.540;2023-07-31T00:07:41;3.28;;;1.95;;
14738;SDS011;7461;52.440;13.540;2023-07-31T00:10:08;2.33;;;2.22;;
14738;SDS011;7461;52.440;13.540;2023-07-31T00:12:37;3.45;;;2.50;;
14738;SDS011;7461;52.440;13.540;2023-07-31T00:15:05;3.00;;;2.65;;
14738;SDS011;7461;52.440;13.540;2023-07-31T00:17:34;2.85;;;2.50;;
14738;SDS011;7461;52.440;13.540;2023-07-31T00:20:01;3.45;;;3.05;;
14738;SDS011;7461;52.440;13.540;2023-07-31T00:22:28;2.92;;;2.35;;
14738;SDS011;7461;52.440;13.540;2023-07-31T00:24:56;4.97;;;2.53;;
14738;SDS011;7461;52.440;13.540;2023-07-31T00:27:24;2.45;;;1.83;;
14738;SDS011;7461;52.440;13.540;2023-07-31T00:29:52;3.72;;;3.13;;
14738;SDS011;7461;52.440;13.540;2023-07-31T00:32:19;3.15;;;2.92;;
14738;SDS011;7461;52.440;13.540;2023-07-31T00:34:47;3.08;;;2.60;;
14738;SDS011;7461;52.440;13.540;2023-07-31T00:37:15;4.00;;;3.55;;
14738;SDS011;7461;52.440;13.540;2023-07-31T00:39:42;3.78;;;3.47;;
14738;SDS011;7461;52.440;13.540;2023-07-31T00:42:09;4.68;;;4.30;;
14738;SDS011;7461;52.440;13.540;2023-07-31T00:44:36;3.97;;;3.65;;
14738;SDS011;7461;52.440;13.540;2023-07-31T00:47:04;3.28;;;2.80;;
14738;SDS011;7461;52.440;13.540;2023-07-31T00:49:31;3.17;;;2.90;;
14738;SDS011;7461;52.440;13.540;2023-07-31T00:52:00;2.95;;;2.60;;
14738;SDS011;7461;52.440;13.540;2023-07-31T00:54:27;3.55;;;3.35;;
14738;SDS011;7461;52.440;13.540;2023-07-31T00:56:54;6.45;;;5.47;;
14738;SDS011;7461;52.440;13.540;2023-07-31T00:59:22;7.55;;;3.28;;
14738;SDS011;7461;52.440;13.540;2023-07-31T01:01:49;3.35;;;3.08;;
14738;SDS011;7461;52.440;13.540;2023-07-31T01:04:17;3.67;;;3.38;;
14738;SDS011;7461;52.440;13.540;2023-07-31T01:06:47;3.75;;;3.45;;
14738;SDS011;7461;52.440;13.540;2023-07-31T01:09:22;5.28;;;3.25;;
14738;SDS011;7461;52.440;13.540;2023-07-31T01:11:56;3.17;;;2.70;;
14738;SDS011;7461;52.440;13.540;2023-07-31T01:14:24;5.00;;;4.10;;
14738;SDS011;7461;52.440;13.540;2023-07-31T01:16:52;2.80;;;2.60;;
14738;SDS011;7461;52.440;13.540;2023-07-31T01:19:21;5.10;;;2.58;;
14738;SDS011;7461;52.440;13.540;2023-07-31T01:24:38;3.65;;;3.35;;
14738;SDS011;7461;52.440;13.540;2023-07-31T01:27:11;3.70;;;3.40;;
14738;SDS011;7461;52.440;13.540;2023-07-31T01:32:22;3.33;;;2.95;;
14738;SDS011;7461;52.440;13.540;2023-07-31T01:34:51;3.75;;;3.10;;
14738;SDS011;7461;52.440;13.540;2023-07-31T01:37:19;9.07;;;5.00;;
14738;SDS011;7461;52.440;13.540;2023-07-31T01:39:46;4.43;;;4.03;;
14738;SDS011;7461;52.440;13.540;2023-07-31T01:42:15;4.05;;;3.72;;
14738;SDS011;7461;52.440;13.540;2023-07-31T01:44:42;5.57;;;4.15;;
14738;SDS011;7461;52.440;13.540;2023-07-31T01:47:10;4.75;;;3.60;;
14738;SDS011;7461;52.440;13.540;2023-07-31T01:49:37;3.92;;;3.65;;
14738;SDS011;7461;52.440;13.540;2023-07-31T01:52:04;3.80;;;3.42;;
14738;SDS011;7461;52.440;13.540;2023-07-31T01:54:32;3.15;;;2.95;;
14738;SDS011;7461;52.440;13.540;2023-07-31T01:56:59;3.75;;;3.45;;
14738;SDS011;7461;52.440;13.540;2023-07-31T01:59:28;3.70;;;3.47;;
14738;SDS011;7461;52.440;13.540;2023-07-31T02:01:55;4.78;;;4.43;;
14738;SDS011;7461;52.440;13.540;2023-07-31T02:04:22;3.70;;;3.40;;
14738;SDS011;7461;52.440;13.540;2023-07-31T02:06:49;5.10;;;4.70;;
14738;SDS011;7461;52.440;13.540;2023-07-31T02:09:16;4.70;;;4.18;;
14738;SDS011;7461;52.440;13.540;2023-07-31T02:11:44;6.20;;;4.07;;
14738;SDS011;7461;52.440;13.540;2023-07-31T02:14:11;4.47;;;4.07;;
14738;SDS011;7461;52.440;13.540;2023-07-31T02:16:39;5.82;;;5.32;;
14738;SDS011;7461;52.440;13.540;2023-07-31T02:19:07;5.63;;;5.20;;
14738;SDS011;7461;52.440;13.540;2023-07-31T02:21:35;5.22;;;4.82;;
14738;SDS011;7461;52.440;13.540;2023-07-31T02:24:02;4.85;;;4.43;;
14738;SDS011;7461;52.440;13.540;2023-07-31T02:26:29;4.47;;;4.28;;
14738;SDS011;7461;52.440;13.540;2023-07-31T02:28:58;7.82;;;5.38;;
14738;SDS011;7461;52.440;13.540;2023-07-31T02:31:25;5.13;;;4.75;;
14738;SDS011;7461;52.440;13.540;2023-07-31T02:33:54;6.45;;;5.47;;
14738;SDS011;7461;52.440;13.540;2023-07-31T02:36:21;5.93;;;5.43;;
14738;SDS011;7461;52.440;13.540;2023-07-31T02:38:48;6.18;;;5.45;;
14738;SDS011;7461;52.440;13.540;2023-07-31T02:41:15;5.50;;;5.10;;
14738;SDS011;7461;52.440;13.540;2023-07-31T02:43:43;5.80;;;5.28;;
14738;SDS011;7461;52.440;13.540;2023-07-31T02:46:10;5.10;;;4.60;;
14738;SDS011;7461;52.440;13.540;2023-07-31T02:48:37;6.43;;;5.50;;
14738;SDS011;7461;52.440;13.540;2023-07-31T02:51:06;7.43;;;5.75;;
14738;SDS011;7461;52.440;13.540;2023-07-31T02:53:33;5.22;;;4.93;;
14738;SDS011;7461;52.440;13.540;2023-07-31T02:56:00;6.00;;;5.53;;
14738;SDS011;7461;52.440;13.540;2023-07-31T02:58:27;6.90;;;6.35;;
14738;SDS011;7461;52.440;13.540;2023-07-31T03:00:55;6.57;;;5.90;;
14738;SDS011;7461;52.440;13.540;2023-07-31T03:03:22;6.53;;;5.93;;
14738;SDS011;7461;52.440;13.540;2023-07-31T03:05:49;8.75;;;7.70;;
14738;SDS011;7461;52.440;13.540;2023-07-31T03:08:18;7.50;;;6.80;;
14738;SDS011;7461;52.440;13.540;2023-07-31T03:10:45;6.70;;;6.30;;
14738;SDS011;7461;52.440;13.540;2023-07-31T03:13:12;7.70;;;7.10;;
14738;SDS011;7461;52.440;13.540;2023-07-31T03:15:41;6.63;;;6.25;;
14738;SDS011;7461;52.440;13.540;2023-07-31T03:18:08;7.32;;;6.80;;
14738;SDS011;7461;52.440;13.540;2023-07-31T03:20:36;7.03;;;6.43;;
14738;SDS011;7461;52.440;13.540;2023-07-31T03:23:03;6.85;;;6.28;;
14738;SDS011;7461;52.440;13.540;2023-07-31T03:25:31;5.95;;;5.55;;
14738;SDS011;7461;52.440;13.540;2023-07-31T03:27:59;7.90;;;7.28;;
14738;SDS011;7461;52.440;13.540;2023-07-31T03:30:28;7.68;;;6.80;;
14738;SDS011;7461;52.440;13.540;2023-07-31T03:32:55;6.97;;;6.35;;
14738;SDS011;7461;52.440;13.540;2023-07-31T03:37:59;6.65;;;6.13;;
14738;SDS011;7461;52.440;13.540;2023-07-31T03:40:27;7.75;;;7.05;;
14738;SDS011;7461;52.440;13.540;2023-07-31T03:42:55;6.15;;;5.80;;
14738;SDS011;7461;52.440;13.540;2023-07-31T03:45:22;5.90;;;5.38;;
14738;SDS011;7461;52.440;13.540;2023-07-31T03:47:50;6.47;;;5.97;;
14738;SDS011;7461;52.440;13.540;2023-07-31T03:50:17;7.57;;;6.95;;
14738;SDS011;7461;52.440;13.540;2023-07-31T03:52:44;6.43;;;5.72;;
14738;SDS011;7461;52.440;13.540;2023-07-31T03:55:11;6.65;;;6.25;;
14738;SDS011;7461;52.440;13.540;2023-07-31T03:57:38;7.07;;;5.82;;
14738;SDS011;7461;52.440;13.540;2023-07-31T04:00:08;7.03;;;6.43;;
14738;SDS011;7461;52.440;13.540;2023-07-31T04:02:35;6.72;;;6.13;;
14738;SDS011;7461;52.440;13.540;2023-07-31T04:05:02;6.00;;;5.45;;
14738;SDS011;7461;52.440;13.540;2023-07-31T04:07:30;6.57;;;6.07;;
14738;SDS011;7461;52.440;13.540;2023-07-31T04:09:57;10.15;;;7.05;;
14738;SDS011;7461;52.440;13.540;2023-07-31T04:12:24;6.55;;;5.95;;
14738;SDS011;7461;52.440;13.540;2023-07-31T04:14:51;6.72;;;6.32;;
14738;SDS011;7461;52.440;13.540;2023-07-31T04:17:20;5.63;;;5.22;;
14738;SDS011;7461;52.440;13.540;2023-07-31T04:19:47;6.07;;;5.68;;
14738;SDS011;7461;52.440;13.540;2023-07-31T04:22:14;6.43;;;5.93;;
14738;SDS011;7461;52.440;13.540;2023-07-31T04:24:41;5.82;;;5.32;;
14738;SDS011;7461;52.440;13.540;2023-07-31T04:27:09;6.18;;;5.72;;
14738;SDS011;7461;52.440;13.540;2023-07-31T04:29:36;6.95;;;5.25;;
14738;SDS011;7461;52.440;13.540;2023-07-31T04:32:05;8.40;;;5.47;;
14738;SDS011;7461;52.440;13.540;2023-07-31T04:34:33;6.80;;;6.13;;
14738;SDS011;7461;52.440;13.540;2023-07-31T04:37:01;6.53;;;5.88;;
14738;SDS011;7461;52.440;13.540;2023-07-31T04:39:28;7.22;;;6.63;;
14738;SDS011;7461;52.440;13.540;2023-07-31T04:41:55;7.43;;;6.93;;
14738;SDS011;7461;52.440;13.540;2023-07-31T04:44:22;7.32;;;5.22;;
14738;SDS011;7461;52.440;13.540;2023-07-31T04:46:49;6.65;;;6.20;;
14738;SDS011;7461;52.440;13.540;2023-07-31T04:49:17;6.28;;;5.78;;
14738;SDS011;7461;52.440;13.540;2023-07-31T04:51:46;6.78;;;6.20;;
14738;SDS011;7461;52.440;13.540;2023-07-31T04:54:13;6.22;;;5.72;;
14738;SDS011;7461;52.440;13.540;2023-07-31T04:56:41;4.63;;;4.38;;
14738;SDS011;7461;52.440;13.540;2023-07-31T04:59:08;6.47;;;5.80;;
14738;SDS011;7461;52.440;13.540;2023-07-31T05:01:35;5.65;;;5.15;;
14738;SDS011;7461;52.440;13.540;2023-07-31T05:04:02;5.20;;;4.90;;
14738;SDS011;7461;52.440;13.540;2023-07-31T05:06:29;5.53;;;5.03;;
14738;SDS011;7461;52.440;13.540;2023-07-31T05:08:58;6.32;;;5.72;;
14738;SDS011;7461;52.440;13.540;2023-07-31T05:11:25;7.03;;;6.43;;
14738;SDS011;7461;52.440;13.540;2023-07-31T05:13:52;6.90;;;6.38;;
14738;SDS011;7461;52.440;13.540;2023-07-31T05:16:20;5.90;;;5.53;;
14738;SDS011;7461;52.440;13.540;2023-07-31T05:18:47;7.68;;;5.18;;
14738;SDS011;7461;52.440;13.540;2023-07-31T05:21:14;5.00;;;4.70;;
14738;SDS011;7461;52.440;13.540;2023-07-31T05:23:41;6.03;;;4.65;;
14738;SDS011;7461;52.440;13.540;2023-07-31T05:26:10;7.30;;;5.32;;
14738;SDS011;7461;52.440;13.540;2023-07-31T05:28:37;5.45;;;4.90;;
14738;SDS011;7461;52.440;13.540;2023-07-31T05:31:05;6.32;;;5.07;;
14738;SDS011;7461;52.440;13.540;2023-07-31T05:33:32;4.97;;;4.57;;
14738;SDS011;7461;52.440;13.540;2023-07-31T05:35:59;5.65;;;5.10;;
14738;SDS011;7461;52.440;13.540;2023-07-31T05:38:27;5.32;;;4.53;;
14738;SDS011;7461;52.440;13.540;2023-07-31T05:40:54;10.63;;;5.28;;
14738;SDS011;7461;52.440;13.540;2023-07-31T05:43:23;5.43;;;4.68;;
14738;SDS011;7461;52.440;13.540;2023-07-31T05:45:50;4.53;;;4.22;;
14738;SDS011;7461;52.440;13.540;2023-07-31T05:48:18;6.28;;;5.65;;
14738;SDS011;7461;52.440;13.540;2023-07-31T05:50:45;5.60;;;4.75;;
14738;SDS011;7461;52.440;13.540;2023-07-31T05:53:12;5.95;;;5.40;;
14738;SDS011;7461;52.440;13.540;2023-07-31T05:55:39;5.45;;;5.05;;
14738;SDS011;7461;52.440;13.540;2023-07-31T05:58:07;5.20;;;4.70;;
14738;SDS011;7461;52.440;13.540;2023-07-31T06:00:35;4.40;;;4.05;;
14738;SDS011;7461;52.440;13.540;2023-07-31T06:03:02;6.18;;;5.32;;
14738;SDS011;7461;52.440;13.540;2023-07-31T06:05:30;5.97;;;5.13;;
14738;SDS011;7461;52.440;13.540;2023-07-31T06:07:57;4.60;;;4.28;;
14738;SDS011;7461;52.440;13.540;2023-07-31T06:10:24;6.00;;;5.47;;
14738;SDS011;7461;52.440;13.540;2023-07-31T06:12:51;8.02;;;4.30;;
14738;SDS011;7461;52.440;13.540;2023-07-31T06:15:19;5.93;;;5.43;;
14738;SDS011;7461;52.440;13.540;2023-07-31T06:17:47;5.20;;;4.72;;
14738;SDS011;7461;52.440;13.540;2023-07-31T06:20:15;5.38;;;4.88;;
14738;SDS011;7461;52.440;13.540;2023-07-31T06:22:42;5.85;;;4.75;;
14738;SDS011;7461;52.440;13.540;2023-07-31T06:25:09;6.00;;;4.55;;
14738;SDS011;7461;52.440;13.540;2023-07-31T06:27:36;9.50;;;4.82;;
14738;SDS011;7461;52.440;13.540;2023-07-31T06:30:04;4.85;;;4.53;;
14738;SDS011;7461;52.440;13.540;2023-07-31T06:32:32;6.35;;;5.15;;
14738;SDS011;7461;52.440;13.540;2023-07-31T06:35:00;4.70;;;4.25;;
14738;SDS011;7461;52.440;13.540;2023-07-31T06:37:27;5.45;;;4.88;;
14738;SDS011;7461;52.440;13.540;2023-07-31T06:39:55;5.68;;;5.22;;
14738;SDS011;7461;52.440;13.540;2023-07-31T06:42:22;5.72;;;4.63;;
14738;SDS011;7461;52.440;13.540;2023-07-31T06:44:49;6.20;;;5.63;;
14738;SDS011;7461;52.440;13.540;2023-07-31T06:47:17;4.90;;;4.60;;
14738;SDS011;7461;52.440;13.540;2023-07-31T06:49:44;7.45;;;4.53;;
14738;SDS011;7461;52.440;13.540;2023-07-31T06:52:13;5.38;;;4.88;;
14738;SDS011;7461;52.440;13.540;2023-07-31T06:54:40;5.30;;;4.85;;
14738;SDS011;7461;52.440;13.540;2023-07-31T06:57:07;7.68;;;5.25;;
14738;SDS011;7461;52.440;13.540;2023-07-31T06:59:35;5.22;;;4.80;;
14738;SDS011;7461;52.440;13.540;2023-07-31T07:02:02;5.97;;;5.40;;
14738;SDS011;7461;52.440;13.540;2023-07-31T07:04:29;9.70;;;4.72;;
14738;SDS011;7461;52.440;13.540;2023-07-31T07:06:56;5.57;;;4.95;;
14738;SDS011;7461;52.440;13.540;2023-07-31T07:09:25;7.28;;;6.15;;
14738;SDS011;7461;52.440;13.540;2023-07-31T07:11:52;5.50;;;5.10;;
14738;SDS011;7461;52.440;13.540;2023-07-31T07:14:19;6.57;;;5.25;;
14738;SDS011;7461;52.440;13.540;2023-07-31T07:16:50;7.65;;;5.10;;
14738;SDS011;7461;52.440;13.540;2023-07-31T07:19:17;5.95;;;5.45;;
14738;SDS011;7461;52.440;13.540;2023-07-31T07:21:44;8.02;;;5.82;;
14738;SDS011;7461;52.440;13.540;2023-07-31T07:24:11;6.53;;;4.88;;
14738;SDS011;7461;52.440;13.540;2023-07-31T07:26:40;11.90;;;5.95;;
14738;SDS011;7461;52.440;13.540;2023-07-31T07:29:07;10.80;;;5.75;;
14738;SDS011;7461;52.440;13.540;2023-07-31T07:31:36;6.50;;;5.03;;
14738;SDS011;7461;52.440;13.540;2023-07-31T07:34:03;5.72;;;5.07;;
14738;SDS011;7461;52.440;13.540;2023-07-31T07:36:30;6.30;;;5.28;;
14738;SDS011;7461;52.440;13.540;2023-07-31T07:38:58;6.75;;;6.05;;
14738;SDS011;7461;52.440;13.540;2023-07-31T07:41:25;7.43;;;5.68;;
14738;SDS011;7461;52.440;13.540;2023-07-31T07:43:54;6.13;;;5.63;;
14738;SDS011;7461;52.440;13.540;2023-07-31T07:46:21;6.00;;;5.43;;
14738;SDS011;7461;52.440;13.540;2023-07-31T07:48:48;7.00;;;6.32;;
14738;SDS011;7461;52.440;13.540;2023-07-31T07:51:15;7.55;;;6.30;;
14738;SDS011;7461;52.440;13.540;2023-07-31T07:53:42;9.68;;;6.30;;
14738;SDS011;7461;52.440;13.540;2023-07-31T07:56:10;8.52;;;6.18;;
14738;SDS011;7461;52.440;13.540;2023-07-31T07:58:39;6.88;;;6.18;;
14738;SDS011;7461;52.440;13.540;2023-07-31T08:01:07;6.22;;;5.10;;
14738;SDS011;7461;52.440;13.540;2023-07-31T08:03:34;7.07;;;6.15;;
14738;SDS011;7461;52.440;13.540;2023-07-31T08:06:01;6.50;;;5.90;;
14738;SDS011;7461;52.440;13.540;2023-07-31T08:08:29;5.95;;;5.45;;
14738;SDS011;7461;52.440;13.540;2023-07-31T08:10:56;7.15;;;5.43;;
14738;SDS011;7461;52.440;13.540;2023-07-31T08:13:23;5.03;;;4.63;;
14738;SDS011;7461;52.440;13.540;2023-07-31T08:15:50;5.18;;;4.75;;
14738;SDS011;7461;52.440;13.540;2023-07-31T08:18:19;5.47;;;4.63;;
14738;SDS011;7461;52.440;13.540;2023-07-31T08:20:46;5.35;;;4.50;;
14738;SDS011;7461;52.440;13.540;2023-07-31T08:23:14;5.22;;;4.80;;
14738;SDS011;7461;52.440;13.540;2023-07-31T08:25:42;6.75;;;4.88;;
14738;SDS011;7461;52.440;13.540;2023-07-31T08:28:09;5.25;;;4.85;;
14738;SDS011;7461;52.440;13.540;2023-07-31T08:30:36;5.82;;;5.43;;
14738;SDS011;7461;52.440;13.540;2023-07-31T08:33:03;5.07;;;4.72;;
14738;SDS011;7461;52.440;13.540;2023-07-31T08:35:32;5.30;;;4.80;;
14738;SDS011;7461;52.440;13.540;2023-07-31T08:37:59;5.93;;;5.32;;
14738;SDS011;7461;52.440;13.540;2023-07-31T08:40:27;5.28;;;4.85;;
14738;SDS011;7461;52.440;13.540;2023-07-31T08:42:55;6.13;;;5.68;;
14738;SDS011;7461;52.440;13.540;2023-07-31T08:45:27;5.93;;;5.53;;
14738;SDS011;7461;52.440;13.540;2023-07-31T08:47:54;5.15;;;4.75;;
14738;SDS011;7461;52.440;13.540;2023-07-31T08:50:22;6.53;;;5.97;;
14738;SDS011;7461;52.440;13.540;2023-07-31T08:52:51;5.72;;;5.20;;
14738;SDS011;7461;52.440;13.540;2023-07-31T08:55:18;8.38;;;5.43;;
14738;SDS011;7461;52.440;13.540;2023-07-31T08:57:48;5.82;;;5.43;;
14738;SDS011;7461;52.440;13.540;2023-07-31T09:00:17;6.07;;;5.43;;
14738;SDS011;7461;52.440;13.540;2023-07-31T09:02:45;6.00;;;4.93;;
14738;SDS011;7461;52.440;13.540;2023-07-31T09:05:15;6.45;;;5.30;;
14738;SDS011;7461;52.440;13.540;2023-07-31T09:07:43;4.53;;;4.22;;
14738;SDS011;7461;52.440;13.540;2023-07-31T09:10:15;8.00;;;6.03;;
14738;SDS011;7461;52.440;13.540;2023-07-31T09:12:43;4.85;;;4.35;;
14738;SDS011;7461;52.440;13.540;2023-07-31T09:15:10;4.65;;;4.35;;
14738;SDS011;7461;52.440;13.540;2023-07-31T09:17:38;3.40;;;3.20;;
14738;SDS011;7461;52.440;13.540;2023-07-31T09:20:15;5.95;;;5.43;;
14738;SDS011;7461;52.440;13.540;2023-07-31T09:22:42;3.83;;;3.53;;
14738;SDS011;7461;52.440;13.540;2023-07-31T09:25:14;3.30;;;3.08;;
14738;SDS011;7461;52.440;13.540;2023-07-31T09:27:50;3.95;;;3.63;;
14738;SDS011;7461;52.440;13.540;2023-07-31T09:30:17;4.72;;;3.35;;
14738;SDS011;7461;52.440;13.540;2023-07-31T09:32:45;2.78;;;2.67;;
14738;SDS011;7461;52.440;13.540;2023-07-31T09:35:19;2.05;;;1.95;;
14738;SDS011;7461;52.440;13.540;2023-07-31T09:37:50;2.63;;;2.35;;
14738;SDS011;7461;52.440;13.540;2023-07-31T09:40:27;3.13;;;2.10;;
14738;SDS011;7461;52.440;13.540;2023-07-31T09:42:59;1.92;;;1.83;;
14738;SDS011;7461;52.440;13.540;2023-07-31T09:45:27;1.75;;;1.65;;
14738;SDS011;7461;52.440;13.540;2023-07-31T09:47:54;1.60;;;1.50;;
14738;SDS011;7461;52.440;13.540;2023-07-31T09:50:22;2.50;;;1.80;;
14738;SDS011;7461;52.440;13.540;2023-07-31T09:52:49;1.70;;;1.60;;
14738;SDS011;7461;52.440;13.540;2023-07-31T09:55:17;1.48;;;1.38;;
14738;SDS011;7461;52.440;13.540;2023-07-31T09:57:46;3.83;;;2.88;;
14738;SDS011;7461;52.440;13.540;2023-07-31T10:00:15;2.88;;;2.30;;
14738;SDS011;7461;52.440;13.540;2023-07-31T10:02:44;4.13;;;3.10;;
14738;SDS011;7461;52.440;13.540;2023-07-31T10:05:12;3.47;;;3.17;;
14738;SDS011;7461;52.440;13.540;2023-07-31T10:07:40;4.65;;;4.22;;
14738;SDS011;7461;52.440;13.540;2023-07-31T10:10:10;3.25;;;3.15;;
14738;SDS011;7461;52.440;13.540;2023-07-31T10:12:38;5.65;;;4.60;;
14738;SDS011;7461;52.440;13.540;2023-07-31T10:15:06;6.57;;;4.38;;
14738;SDS011;7461;52.440;13.540;2023-07-31T10:17:34;5.35;;;4.88;;
14738;SDS011;7461;52.440;13.540;2023-07-31T10:20:03;4.82;;;4.38;;
14738;SDS011;7461;52.440;13.540;2023-07-31T10:22:31;5.07;;;4.53;;
14738;SDS011;7461;52.440;13.540;2023-07-31T10:24:58;5.90;;;4.75;;
14738;SDS011;7461;52.440;13.540;2023-07-31T10:27:26;5.28;;;4.88;;
14738;SDS011;7461;52.440;13.540;2023-07-31T10:29:55;5.82;;;4.88;;
14738;SDS011;7461;52.440;13.540;2023-07-31T10:32:23;5.85;;;5.45;;
14738;SDS011;7461;52.440;13.540;2023-07-31T10:34:53;6.15;;;5.65;;
14738;SDS011;7461;52.440;13.540;2023-07-31T10:37:23;6.47;;;5.22;;
14738;SDS011;7461;52.440;13.540;2023-07-31T10:39:56;6.32;;;5.85;;
14738;SDS011;7461;52.440;13.540;2023-07-31T10:42:29;7.35;;;6.70;;
14738;SDS011;7461;52.440;13.540;2023-07-31T10:44:57;7.05;;;6.57;;
14738;SDS011;7461;52.440;13.540;2023-07-31T10:47:25;9.05;;;6.78;;
14738;SDS011;7461;52.440;13.540;2023-07-31T10:49:54;7.18;;;5.63;;
14738;SDS011;7461;52.440;13.540;2023-07-31T10:52:37;6.72;;;6.13;;
14738;SDS011;7461;52.440;13.540;2023-07-31T10:55:14;6.95;;;6.38;;
14738;SDS011;7461;52.440;13.540;2023-07-31T10:57:44;8.02;;;7.40;;
14738;SDS011;7461;52.440;13.540;2023-07-31T11:00:18;7.57;;;6.82;;
14738;SDS011;7461;52.440;13.540;2023-07-31T11:02:55;6.28;;;5.43;;
14738;SDS011;7461;52.440;13.540;2023-07-31T11:05:25;7.82;;;6.53;;
14738;SDS011;7461;52.440;13.540;2023-07-31T11:08:11;6.78;;;6.13;;
14738;SDS011;7461;52.440;13.540;2023-07-31T11:10:38;8.68;;;6.50;;
14738;SDS011;7461;52.440;13.540;2023-07-31T11:13:06;7.93;;;6.28;;
14738;SDS011;7461;52.440;13.540;2023-07-31T11:15:33;5.50;;;5.00;;
14738;SDS011;7461;52.440;13.540;2023-07-31T11:18:00;5.70;;;5.30;;
14738;SDS011;7461;52.440;13.540;2023-07-31T11:20:32;5.53;;;5.03;;
14738;SDS011;7461;52.440;13.540;2023-07-31T11:23:00;7.20;;;5.18;;
14738;SDS011;7461;52.440;13.540;2023-07-31T11:25:28;6.05;;;5.63;;
14738;SDS011;7461;52.440;13.540;2023-07-31T11:27:56;7.22;;;6.20;;
14738;SDS011;7461;52.440;13.540;2023-07-31T11:30:23;4.25;;;3.95;;
14738;SDS011;7461;52.440;13.540;2023-07-31T11:32:51;5.32;;;4.82;;
14738;SDS011;7461;52.440;13.540;2023-07-31T11:35:18;5.15;;;4.72;;
14738;SDS011;7461;52.440;13.540;2023-07-31T11:37:47;5.07;;;4.47;;
14738;SDS011;7461;52.440;13.540;2023-07-31T11:40:14;5.22;;;4.72;;
14738;SDS011;7461;52.440;13.540;2023-07-31T11:42:41;5.18;;;4.63;;
14738;SDS011;7461;52.440;13.540;2023-07-31T11:45:09;5.00;;;4.70;;
14738;SDS011;7461;52.440;13.540;2023-07-31T11:47:36;5.80;;;5.40;;
14738;SDS011;7461;52.440;13.540;2023-07-31T11:50:05;4.85;;;4.38;;
14738;SDS011;7461;52.440;13.540;2023-07-31T11:52:34;5.22;;;4.60;;
14738;SDS011;7461;52.440;13.540;2023-07-31T11:55:05;5.47;;;5.03;;
14738;SDS011;7461;52.440;13.540;2023-07-31T11:57:34;5.18;;;4.25;;
14738;SDS011;7461;52.440;13.540;2023-07-31T12:00:02;9.65;;;4.50;;
14738;SDS011;7461;52.440;13.540;2023-07-31T12:02:30;4.53;;;4.00;;
14738;SDS011;7461;52.440;13.540;2023-07-31T12:04:58;5.50;;;5.10;;
14738;SDS011;7461;52.440;13.540;2023-07-31T12:07:25;5.45;;;4.95;;
14738;SDS011;7461;52.440;13.540;2023-07-31T12:09:53;5.38;;;4.88;;
14738;SDS011;7461;52.440;13.540;2023-07-31T12:12:22;6.18;;;5.57;;
14738;SDS011;7461;52.440;13.540;2023-07-31T12:14:49;5.10;;;4.80;;
14738;SDS011;7461;52.440;13.540;2023-07-31T12:17:17;5.40;;;4.90;;
14738;SDS011;7461;52.440;13.540;2023-07-31T12:19:48;6.55;;;4.93;;
14738;SDS011;7461;52.440;13.540;2023-07-31T12:22:15;4.28;;;3.97;;
14738;SDS011;7461;52.440;13.540;2023-07-31T12:24:43;4.20;;;3.88;;
14738;SDS011;7461;52.440;13.540;2023-07-31T12:27:11;5.55;;;4.45;;
14738;SDS011;7461;52.440;13.540;2023-07-31T12:29:41;6.53;;;4.75;;
14738;SDS011;7461;52.440;13.540;2023-07-31T12:32:22;4.85;;;4.50;;
14738;SDS011;7461;52.440;13.540;2023-07-31T12:34:50;4.63;;;4.32;;
14738;SDS011;7461;52.440;13.540;2023-07-31T12:37:17;5.60;;;5.10;;
14738;SDS011;7461;52.440;13.540;2023-07-31T12:39:44;6.15;;;5.55;;
14738;SDS011;7461;52.440;13.540;2023-07-31T12:42:11;4.43;;;4.10;;
14738;SDS011;7461;52.440;13.540;2023-07-31T12:44:40;5.43;;;3.80;;
14738;SDS011;7461;52.440;13.540;2023-07-31T12:47:07;4.50;;;4.05;;
14738;SDS011;7461;52.440;13.540;2023-07-31T12:49:34;4.55;;;4.25;;
14738;SDS011;7461;52.440;13.540;2023-07-31T12:52:02;4.28;;;3.88;;
14738;SDS011;7461;52.440;13.540;2023-07-31T12:54:29;4.90;;;3.25;;
14738;SDS011;7461;52.440;13.540;2023-07-31T12:56:56;3.42;;;3.13;;
14738;SDS011;7461;52.440;13.540;2023-07-31T12:59:24;3.55;;;3.30;;
14738;SDS011;7461;52.440;13.540;2023-07-31T13:01:52;3.63;;;3.42;;
14738;SDS011;7461;52.440;13.540;2023-07-31T13:04:19;5.05;;;4.10;;
14738;SDS011;7461;52.440;13.540;2023-07-31T13:06:46;4.68;;;3.67;;
14738;SDS011;7461;52.440;13.540;2023-07-31T13:09:14;4.00;;;3.70;;
14738;SDS011;7461;52.440;13.540;2023-07-31T13:11:42;3.17;;;2.97;;
14738;SDS011;7461;52.440;13.540;2023-07-31T13:14:09;3.88;;;3.03;;
14738;SDS011;7461;52.440;13.540;2023-07-31T13:16:37;3.60;;;3.40;;
14738;SDS011;7461;52.440;13.540;2023-07-31T13:19:06;4.25;;;3.90;;
14738;SDS011;7461;52.440;13.540;2023-07-31T13:21:33;5.20;;;4.75;;
14738;SDS011;7461;52.440;13.540;2023-07-31T13:24:01;3.95;;;3.65;;
14738;SDS011;7461;52.440;13.540;2023-07-31T13:26:29;3.92;;;3.63;;
14738;SDS011;7461;52.440;13.540;2023-07-31T13:28:56;4.82;;;4.50;;
14738;SDS011;7461;52.440;13.540;2023-07-31T13:31:24;4.90;;;4.47;;
14738;SDS011;7461;52.440;13.540;2023-07-31T13:33:51;5.55;;;4.75;;
14738;SDS011;7461;52.440;13.540;2023-07-31T13:36:22;8.93;;;4.75;;
14738;SDS011;7461;52.440;13.540;2023-07-31T13:38:50;5.90;;;4.68;;
14738;SDS011;7461;52.440;13.540;2023-07-31T13:41:17;5.82;;;5.10;;
14738;SDS011;7461;52.440;13.540;2023-07-31T13:43:44;5.20;;;4.80;;
14738;SDS011;7461;52.440;13.540;2023-07-31T13:46:11;4.18;;;3.95;;
14738;SDS011;7461;52.440;13.540;2023-07-31T13:48:38;5.13;;;4.72;;
14738;SDS011;7461;52.440;13.540;2023-07-31T13:51:06;6.88;;;4.60;;
14738;SDS011;7461;52.440;13.540;2023-07-31T13:53:34;4.32;;;3.92;;
14738;SDS011;7461;52.440;13.540;2023-07-31T13:56:01;4.63;;;4.00;;
14738;SDS011;7461;52.440;13.540;2023-07-31T13:58:29;6.88;;;5.38;;
14738;SDS011;7461;52.440;13.540;2023-07-31T14:00:56;5.03;;;4.57;;
14738;SDS011;7461;52.440;13.540;2023-07-31T14:03:23;6.50;;;4.47;;
14738;SDS011;7461;52.440;13.540;2023-07-31T14:05:51;4.57;;;4.18;;
14738;SDS011;7461;52.440;13.540;2023-07-31T14:08:20;5.13;;;4.72;;
14738;SDS011;7461;52.440;13.540;2023-07-31T14:10:49;5.35;;;4.85;;
14738;SDS011;7461;52.440;13.540;2023-07-31T14:13:16;5.35;;;4.95;;
14738;SDS011;7461;52.440;13.540;2023-07-31T14:15:43;4.90;;;4.47;;
14738;SDS011;7461;52.440;13.540;2023-07-31T14:18:11;5.50;;;5.00;;
14738;SDS011;7461;52.440;13.540;2023-07-31T14:20:38;5.57;;;5.28;;
14738;SDS011;7461;52.440;13.540;2023-07-31T14:23:05;4.80;;;4.40;;
14738;SDS011;7461;52.440;13.540;2023-07-31T14:25:32;5.20;;;4.90;;
14738;SDS011;7461;52.440;13.540;2023-07-31T14:28:01;5.80;;;5.40;;
14738;SDS011;7461;52.440;13.540;2023-07-31T14:30:28;5.50;;;4.68;;
14738;SDS011;7461;52.440;13.540;2023-07-31T14:32:55;5.75;;;5.05;;
14738;SDS011;7461;52.440;13.540;2023-07-31T14:35:22;5.90;;;5.30;;
14738;SDS011;7461;52.440;13.540;2023-07-31T14:37:50;6.20;;;5.60;;
14738;SDS011;7461;52.440;13.540;2023-07-31T14:40:17;6.47;;;5.85;;
14738;SDS011;7461;52.440;13.540;2023-07-31T14:42:44;5.82;;;5.45;;
14738;SDS011;7461;52.440;13.540;2023-07-31T14:45:13;5.20;;;4.80;;
14738;SDS011;7461;52.440;13.540;2023-07-31T14:47:40;6.00;;;5.60;;
14738;SDS011;7461;52.440;13.540;2023-07-31T14:50:07;7.43;;;6.07;;
14738;SDS011;7461;52.440;13.540;2023-07-31T14:52:35;6.18;;;5.57;;
14738;SDS011;7461;52.440;13.540;2023-07-31T14:55:02;5.13;;;4.82;;
14738;SDS011;7461;52.440;13.540;2023-07-31T14:57:29;5.25;;;4.80;;
14738;SDS011;7461;52.440;13.540;2023-07-31T14:59:56;4.80;;;4.47;;